Time,TemperatureF,DewpointF,PressureIn,WindDirection,WindDirectionDegrees,WindSpeedMPH,WindSpeedGustMPH,Humidity,HourlyPrecipIn,Conditions,Clouds,dailyrainin,SoftwareType,DateUTC
2013-02-15 00:00:00,23.2,19.9,29.95,NW,311,0.0,1.0,87,0.00,,,0.00,meteohub,2013-02-15 05:00:00,
2013-02-15 00:01:00,23.2,19.9,29.95,NW,311,0.0,0.0,87,0.00,,,0.00,meteohub,2013-02-15 05:01:00,
2013-02-15 00:02:00,23.2,19.9,29.95,NW,311,0.0,0.0,87,0.00,,,0.00,meteohub,2013-02-15 05:02:00,
2013-02-15 00:07:00,23.0,19.9,29.95,NW,311,0.0,0.0,88,0.00,,,0.00,meteohub,2013-02-15 05:07:00,
2013-02-15 00:08:00,22.8,19.8,29.95,NW,311,0.0,0.0,88,0.00,,,0.00,meteohub,2013-02-15 05:08:00,
2013-02-15 00:12:00,22.8,19.8,29.95,NW,311,0.0,0.0,88,0.00,,,0.00,meteohub,2013-02-15 05:12:00,
2013-02-15 00:17:00,22.6,19.6,29.95,NW,311,0.0,0.0,88,0.00,,,0.00,meteohub,2013-02-15 05:17:00,
2013-02-15 00:22:00,22.5,19.2,29.95,NW,311,0.0,1.0,87,0.00,,,0.00,meteohub,2013-02-15 05:22:00,
2013-02-15 00:27:00,21.9,18.9,29.94,NW,311,0.0,1.0,88,0.00,,,0.00,meteohub,2013-02-15 05:27:00,
2013-02-15 00:32:00,21.4,18.3,29.94,NW,311,0.0,1.0,88,0.00,,,0.00,meteohub,2013-02-15 05:32:00,
2013-02-15 00:37:00,21.6,19.0,29.94,NW,311,0.0,1.0,90,0.00,,,0.00,meteohub,2013-02-15 05:37:00,
2013-02-15 00:42:00,21.6,19.0,29.94,ESE,120,0.0,3.0,90,0.00,,,0.00,meteohub,2013-02-15 05:42:00,
2013-02-15 00:47:00,21.2,18.0,29.94,WSW,249,0.0,3.0,87,0.00,,,0.00,meteohub,2013-02-15 05:47:00,
2013-02-15 00:52:00,21.0,18.3,29.94,WSW,249,0.0,3.0,89,0.00,,,0.00,meteohub,2013-02-15 05:52:00,
2013-02-15 00:57:00,21.0,18.5,29.94,WSW,249,0.0,2.0,90,0.00,,,0.00,meteohub,2013-02-15 05:57:00,
2013-02-15 01:02:00,20.8,18.1,29.94,WSW,249,0.0,1.0,89,0.00,,,0.00,meteohub,2013-02-15 06:02:00,
2013-02-15 01:07:00,21.0,18.9,29.94,WSW,249,0.0,1.0,91,0.00,,,0.00,meteohub,2013-02-15 06:07:00,
2013-02-15 01:12:00,21.0,18.5,29.94,WSW,249,0.0,2.0,90,0.00,,,0.00,meteohub,2013-02-15 06:12:00,
2013-02-15 01:17:00,21.0,18.3,29.94,WSW,258,0.0,2.0,89,0.00,,,0.00,meteohub,2013-02-15 06:17:00,
2013-02-15 01:22:00,21.0,18.5,29.94,WSW,257,0.0,2.0,90,0.00,,,0.00,meteohub,2013-02-15 06:22:00,
2013-02-15 01:27:00,20.8,18.3,29.94,WSW,257,0.0,1.0,90,0.00,,,0.00,meteohub,2013-02-15 06:27:00,
2013-02-15 01:32:00,20.8,18.7,29.94,WSW,257,0.0,1.0,91,0.00,,,0.00,meteohub,2013-02-15 06:32:00,
2013-02-15 01:37:00,21.0,18.5,29.94,WSW,257,0.0,0.0,90,0.00,,,0.00,meteohub,2013-02-15 06:37:00,
2013-02-15 01:42:00,21.0,18.5,29.94,WSW,257,0.0,0.0,90,0.00,,,0.00,meteohub,2013-02-15 06:42:00,
2013-02-15 01:47:00,21.2,19.0,29.94,WSW,257,0.0,0.0,91,0.00,,,0.00,meteohub,2013-02-15 06:47:00,
2013-02-15 01:52:00,21.4,19.2,29.94,WSW,257,0.0,0.0,91,0.00,,,0.00,meteohub,2013-02-15 06:52:00,
2013-02-15 01:57:00,21.6,19.6,29.94,WSW,257,0.0,0.0,92,0.00,,,0.00,meteohub,2013-02-15 06:57:00,
2013-02-15 02:02:00,21.7,19.8,29.94,WSW,257,0.0,0.0,92,0.00,,,0.00,meteohub,2013-02-15 07:02:00,
2013-02-15 02:07:00,22.1,20.1,29.94,SSW,198,0.0,0.0,92,0.00,,,0.00,meteohub,2013-02-15 07:07:00,
2013-02-15 02:12:00,22.5,20.3,29.94,SSW,198,0.0,1.0,91,0.00,,,0.00,meteohub,2013-02-15 07:12:00,
2013-02-15 02:17:00,22.6,20.5,29.94,SSW,198,0.0,1.0,91,0.00,,,0.00,meteohub,2013-02-15 07:17:00,
2013-02-15 02:22:00,22.6,20.1,29.94,SSW,198,0.0,1.0,90,0.00,,,0.00,meteohub,2013-02-15 07:22:00,
2013-02-15 02:27:00,22.6,20.1,29.94,SSW,198,0.0,0.0,90,0.00,,,0.00,meteohub,2013-02-15 07:27:00,
2013-02-15 02:32:00,22.6,20.1,29.93,SSW,198,0.0,0.0,90,0.00,,,0.00,meteohub,2013-02-15 07:32:00,
2013-02-15 02:37:00,22.8,20.7,29.94,SSW,199,0.0,0.0,91,0.00,,,0.00,meteohub,2013-02-15 07:37:00,
2013-02-15 02:42:00,23.2,20.7,29.93,SSW,199,0.0,0.0,90,0.00,,,0.00,meteohub,2013-02-15 07:42:00,
2013-02-15 02:47:00,23.2,20.7,29.93,SSW,199,0.0,1.0,90,0.00,,,0.00,meteohub,2013-02-15 07:47:00,
2013-02-15 02:52:00,23.4,21.2,29.93,SSW,199,0.0,1.0,91,0.00,,,0.00,meteohub,2013-02-15 07:52:00,
2013-02-15 02:57:00,23.5,21.4,29.93,West,266,0.0,2.0,91,0.00,,,0.00,meteohub,2013-02-15 07:57:00,
2013-02-15 03:02:00,23.5,21.0,29.92,West,268,0.0,2.0,90,0.00,,,0.00,meteohub,2013-02-15 08:02:00,
2013-02-15 03:07:00,23.7,21.2,29.92,West,268,0.0,2.0,90,0.00,,,0.00,meteohub,2013-02-15 08:07:00,
2013-02-15 03:12:00,24.1,21.6,29.92,West,268,0.0,1.0,90,0.00,,,0.00,meteohub,2013-02-15 08:12:00,
2013-02-15 03:17:00,24.1,21.6,29.92,West,268,0.0,0.0,90,0.00,,,0.00,meteohub,2013-02-15 08:17:00,
2013-02-15 03:22:00,24.3,22.1,29.92,West,268,0.0,0.0,91,0.00,,,0.00,meteohub,2013-02-15 08:22:00,
2013-02-15 03:27:00,24.3,22.1,29.92,West,268,0.0,0.0,91,0.00,,,0.00,meteohub,2013-02-15 08:27:00,
2013-02-15 03:32:00,24.4,22.3,29.92,West,268,0.0,0.0,91,0.00,,,0.00,meteohub,2013-02-15 08:32:00,
2013-02-15 03:37:00,24.4,22.3,29.92,West,268,0.0,0.0,91,0.00,,,0.00,meteohub,2013-02-15 08:37:00,
2013-02-15 03:42:00,24.4,22.3,29.92,West,268,0.0,0.0,91,0.00,,,0.00,meteohub,2013-02-15 08:42:00,
2013-02-15 03:47:00,24.6,22.5,29.91,West,268,0.0,0.0,91,0.00,,,0.00,meteohub,2013-02-15 08:47:00,
2013-02-15 03:52:00,24.6,22.5,29.91,West,268,0.0,0.0,91,0.00,,,0.00,meteohub,2013-02-15 08:52:00,
2013-02-15 03:57:00,24.6,22.5,29.92,West,268,0.0,0.0,91,0.00,,,0.00,meteohub,2013-02-15 08:57:00,
2013-02-15 04:02:00,24.8,22.5,29.92,West,268,0.0,0.0,91,0.00,,,0.00,meteohub,2013-02-15 09:02:00,
2013-02-15 04:07:00,24.8,22.5,29.92,West,268,0.0,0.0,91,0.00,,,0.00,meteohub,2013-02-15 09:07:00,
2013-02-15 04:12:00,24.8,22.5,29.92,West,268,0.0,0.0,91,0.00,,,0.00,meteohub,2013-02-15 09:12:00,
2013-02-15 04:17:00,24.8,22.5,29.91,West,268,0.0,0.0,91,0.00,,,0.00,meteohub,2013-02-15 09:17:00,
2013-02-15 04:22:00,24.8,22.5,29.91,West,268,0.0,0.0,91,0.00,,,0.00,meteohub,2013-02-15 09:22:00,
2013-02-15 04:27:00,25.0,22.6,29.91,West,268,0.0,0.0,91,0.00,,,0.00,meteohub,2013-02-15 09:27:00,
2013-02-15 04:32:00,24.8,22.5,29.91,West,268,0.0,0.0,91,0.00,,,0.00,meteohub,2013-02-15 09:32:00,
2013-02-15 04:37:00,24.6,22.5,29.91,West,268,0.0,0.0,91,0.00,,,0.00,meteohub,2013-02-15 09:37:00,
2013-02-15 04:42:00,24.6,22.5,29.91,West,268,0.0,0.0,91,0.00,,,0.00,meteohub,2013-02-15 09:42:00,
2013-02-15 04:47:00,24.3,21.7,29.91,West,268,0.0,0.0,90,0.00,,,0.00,meteohub,2013-02-15 09:47:00,
2013-02-15 04:52:00,24.1,21.6,29.91,West,268,0.0,0.0,90,0.00,,,0.00,meteohub,2013-02-15 09:52:00,
2013-02-15 04:57:00,23.7,21.2,29.91,West,268,0.0,0.0,90,0.00,,,0.00,meteohub,2013-02-15 09:57:00,
2013-02-15 05:02:00,23.4,20.8,29.91,West,268,0.0,0.0,90,0.00,,,0.00,meteohub,2013-02-15 10:02:00,
2013-02-15 05:07:00,23.2,21.0,29.91,West,268,0.0,0.0,91,0.00,,,0.00,meteohub,2013-02-15 10:07:00,
2013-02-15 05:12:00,22.6,20.1,29.91,West,268,0.0,0.0,90,0.00,,,0.00,meteohub,2013-02-15 10:12:00,
2013-02-15 05:17:00,21.9,19.8,29.91,West,280,0.0,1.0,91,0.00,,,0.00,meteohub,2013-02-15 10:17:00,
2013-02-15 05:22:00,21.7,19.2,29.92,West,280,0.0,1.0,90,0.00,,,0.00,meteohub,2013-02-15 10:22:00,
2013-02-15 05:27:00,21.6,19.4,29.92,West,280,0.0,1.0,91,0.00,,,0.00,meteohub,2013-02-15 10:27:00,
2013-02-15 05:32:00,21.4,19.4,29.92,West,279,0.0,0.0,92,0.00,,,0.00,meteohub,2013-02-15 10:32:00,
2013-02-15 05:37:00,21.2,19.0,29.91,West,279,0.0,0.0,91,0.00,,,0.00,meteohub,2013-02-15 10:37:00,
2013-02-15 05:42:00,20.8,18.7,29.92,West,279,0.0,0.0,91,0.00,,,0.00,meteohub,2013-02-15 10:42:00,
2013-02-15 05:47:00,20.8,18.9,29.92,West,279,0.0,0.0,92,0.00,,,0.00,meteohub,2013-02-15 10:47:00,
2013-02-15 05:52:00,20.7,18.5,29.91,NW,324,0.0,0.0,91,0.00,,,0.00,meteohub,2013-02-15 10:52:00,
2013-02-15 05:57:00,20.3,18.3,29.91,NW,324,0.0,2.0,92,0.00,,,0.00,meteohub,2013-02-15 10:57:00,
2013-02-15 06:02:00,20.5,18.9,29.91,NW,324,0.0,2.0,93,0.00,,,0.00,meteohub,2013-02-15 11:02:00,
2013-02-15 06:07:00,20.7,19.0,29.91,NW,324,0.0,2.0,93,0.00,,,0.00,meteohub,2013-02-15 11:07:00,
2013-02-15 06:12:00,20.7,19.0,29.91,NW,324,0.0,0.0,93,0.00,,,0.00,meteohub,2013-02-15 11:12:00,
2013-02-15 06:17:00,20.3,18.1,29.91,NW,324,0.0,0.0,91,0.00,,,0.00,meteohub,2013-02-15 11:17:00,
2013-02-15 06:22:00,20.1,18.1,29.91,NNW,336,1.0,0.0,92,0.00,,,0.00,meteohub,2013-02-15 11:22:00,
2013-02-15 06:27:00,20.5,18.9,29.91,East,81,0.0,1.0,93,0.00,,,0.00,meteohub,2013-02-15 11:27:00,
2013-02-15 06:32:00,20.7,19.0,29.91,ENE,66,0.0,1.0,93,0.00,,,0.00,meteohub,2013-02-15 11:32:00,
2013-02-15 06:37:00,20.5,18.5,29.91,North,8,0.0,2.0,92,0.00,,,0.00,meteohub,2013-02-15 11:37:00,
2013-02-15 06:42:00,20.3,18.3,29.91,East,95,0.0,2.0,92,0.00,,,0.00,meteohub,2013-02-15 11:42:00,
2013-02-15 06:47:00,20.3,18.3,29.91,East,95,0.0,2.0,92,0.00,,,0.00,meteohub,2013-02-15 11:47:00,
2013-02-15 06:52:00,20.3,18.3,29.91,East,95,0.0,2.0,92,0.00,,,0.00,meteohub,2013-02-15 11:52:00,
2013-02-15 06:57:00,20.3,18.7,29.91,East,95,0.0,1.0,93,0.00,,,0.00,meteohub,2013-02-15 11:57:00,
2013-02-15 07:02:00,20.3,18.7,29.91,East,95,0.0,1.0,93,0.00,,,0.00,meteohub,2013-02-15 12:02:00,
2013-02-15 07:07:00,20.3,18.3,29.91,East,95,0.0,0.0,92,0.00,,,0.00,meteohub,2013-02-15 12:07:00,
2013-02-15 07:12:00,20.1,18.1,29.92,East,95,0.0,0.0,92,0.00,,,0.00,meteohub,2013-02-15 12:12:00,
2013-02-15 07:17:00,19.9,17.8,29.92,East,95,0.0,0.0,91,0.00,,,0.00,meteohub,2013-02-15 12:17:00,
2013-02-15 07:22:00,19.9,18.0,29.92,East,95,0.0,0.0,92,0.00,,,0.00,meteohub,2013-02-15 12:22:00,
2013-02-15 07:27:00,20.1,18.5,29.92,East,95,0.0,0.0,93,0.00,,,0.00,meteohub,2013-02-15 12:27:00,
2013-02-15 07:32:00,19.9,17.8,29.92,East,93,0.0,0.0,91,0.00,,,0.00,meteohub,2013-02-15 12:32:00,
2013-02-15 07:37:00,19.9,18.0,29.92,East,93,0.0,1.0,92,0.00,,,0.00,meteohub,2013-02-15 12:37:00,
2013-02-15 07:42:00,20.3,18.3,29.92,East,93,0.0,1.0,92,0.00,,,0.00,meteohub,2013-02-15 12:42:00,
2013-02-15 07:47:00,20.7,19.0,29.92,East,93,0.0,0.0,93,0.00,,,0.00,meteohub,2013-02-15 12:47:00,
2013-02-15 07:52:00,21.2,19.8,29.92,East,93,0.0,0.0,94,0.00,,,0.00,meteohub,2013-02-15 12:52:00,
2013-02-15 07:57:00,21.7,20.3,29.92,East,93,0.0,0.0,94,0.00,,,0.00,meteohub,2013-02-15 12:57:00,
2013-02-15 08:02:00,22.3,20.8,29.92,East,93,0.0,1.0,94,0.00,,,0.00,meteohub,2013-02-15 13:02:00,
2013-02-15 08:07:00,22.6,20.8,29.92,SE,134,0.0,2.0,93,0.00,,,0.00,meteohub,2013-02-15 13:07:00,
2013-02-15 08:12:00,23.0,21.2,29.92,SE,134,0.0,2.0,93,0.00,,,0.00,meteohub,2013-02-15 13:12:00,
2013-02-15 08:17:00,23.0,20.8,29.92,SE,134,0.0,2.0,91,0.00,,,0.00,meteohub,2013-02-15 13:17:00,
2013-02-15 08:22:00,23.2,21.0,29.93,SE,134,0.0,2.0,91,0.00,,,0.00,meteohub,2013-02-15 13:22:00,
2013-02-15 08:27:00,23.9,21.9,29.93,SE,134,0.0,0.0,92,0.00,,,0.00,meteohub,2013-02-15 13:27:00,
2013-02-15 08:32:00,24.6,22.6,29.92,SE,134,0.0,1.0,92,0.00,,,0.00,meteohub,2013-02-15 13:32:00,
2013-02-15 08:37:00,25.0,22.3,29.92,SE,134,0.0,1.0,89,0.00,,,0.00,meteohub,2013-02-15 13:37:00,
2013-02-15 08:42:00,25.2,22.1,29.92,SE,134,0.0,1.0,88,0.00,,,0.00,meteohub,2013-02-15 13:42:00,
2013-02-15 08:47:00,25.7,23.2,29.92,SE,134,0.0,1.0,90,0.00,,,0.00,meteohub,2013-02-15 13:47:00,
2013-02-15 08:52:00,26.4,23.4,29.92,SE,134,0.0,2.0,88,0.00,,,0.00,meteohub,2013-02-15 13:52:00,
2013-02-15 08:57:00,26.2,23.2,29.92,SE,133,0.0,2.0,88,0.00,,,0.00,meteohub,2013-02-15 13:57:00,
2013-02-15 09:02:00,25.9,22.5,29.92,NE,45,2.0,2.0,87,0.00,,,0.00,meteohub,2013-02-15 14:02:00,
2013-02-15 09:07:00,25.9,22.8,29.92,NE,41,0.0,2.0,88,0.00,,,0.00,meteohub,2013-02-15 14:07:00,
2013-02-15 09:12:00,25.9,22.8,29.92,NE,41,0.0,2.0,88,0.00,,,0.00,meteohub,2013-02-15 14:12:00,
2013-02-15 09:17:00,26.2,23.2,29.92,NE,41,0.0,2.0,88,0.00,,,0.00,meteohub,2013-02-15 14:17:00,
2013-02-15 09:22:00,26.8,23.4,29.91,NE,37,0.0,2.0,87,0.00,,,0.00,meteohub,2013-02-15 14:22:00,
2013-02-15 09:27:00,27.5,24.6,29.91,NE,37,2.0,2.0,89,0.00,,,0.00,meteohub,2013-02-15 14:27:00,
2013-02-15 09:32:00,28.0,25.0,29.91,NNW,327,0.0,2.0,88,0.00,,,0.00,meteohub,2013-02-15 14:32:00,
2013-02-15 09:37:00,28.0,24.1,29.91,ESE,112,1.0,3.0,85,0.00,,,0.00,meteohub,2013-02-15 14:37:00,
2013-02-15 09:42:00,29.3,26.4,29.91,ESE,113,0.0,3.0,89,0.00,,,0.00,meteohub,2013-02-15 14:42:00,
2013-02-15 09:47:00,30.9,27.5,29.91,ESE,114,0.0,3.0,87,0.00,,,0.00,meteohub,2013-02-15 14:47:00,
2013-02-15 09:52:00,32.7,28.8,29.91,ESE,114,0.0,2.0,85,0.00,,,0.00,meteohub,2013-02-15 14:52:00,
2013-02-15 09:57:00,34.3,29.5,29.91,ESE,119,0.0,2.0,82,0.00,,,0.00,meteohub,2013-02-15 14:57:00,
2013-02-15 10:02:00,35.4,29.5,29.90,SE,133,0.0,2.0,79,0.00,,,0.00,meteohub,2013-02-15 15:02:00,
2013-02-15 10:07:00,36.3,30.2,29.90,SE,141,0.0,2.0,78,0.00,,,0.00,meteohub,2013-02-15 15:07:00,
2013-02-15 10:12:00,37.6,31.1,29.90,West,265,1.0,3.0,77,0.00,,,0.00,meteohub,2013-02-15 15:12:00,
2013-02-15 10:17:00,37.9,31.1,29.91,WNW,284,0.0,4.0,76,0.00,,,0.00,meteohub,2013-02-15 15:17:00,
2013-02-15 10:22:00,38.1,30.9,29.90,SSW,213,0.0,4.0,75,0.00,,,0.00,meteohub,2013-02-15 15:22:00,
2013-02-15 10:27:00,39.0,31.1,29.90,SE,126,2.0,4.0,73,0.00,,,0.00,meteohub,2013-02-15 15:27:00,
2013-02-15 10:32:00,39.7,30.7,29.90,NNW,339,2.0,5.0,70,0.00,,,0.00,meteohub,2013-02-15 15:32:00,
2013-02-15 10:37:00,40.6,30.6,29.90,WSW,252,2.0,11.0,67,0.00,,,0.00,meteohub,2013-02-15 15:37:00,
2013-02-15 10:42:00,41.4,30.0,29.91,SE,131,2.0,11.0,64,0.00,,,0.00,meteohub,2013-02-15 15:42:00,
2013-02-15 10:47:00,41.5,29.8,29.91,NW,319,3.0,11.0,63,0.00,,,0.00,meteohub,2013-02-15 15:47:00,
2013-02-15 10:52:00,42.1,29.7,29.90,SE,126,3.0,11.0,61,0.00,,,0.00,meteohub,2013-02-15 15:52:00,
2013-02-15 10:57:00,42.6,28.9,29.90,WNW,298,3.0,9.0,58,0.00,,,0.00,meteohub,2013-02-15 15:57:00,
2013-02-15 11:02:00,42.6,30.2,29.90,SE,125,1.0,9.0,61,0.00,,,0.00,meteohub,2013-02-15 16:02:00,
2013-02-15 11:07:00,43.0,28.8,29.91,NNW,327,1.0,7.0,57,0.00,,,0.00,meteohub,2013-02-15 16:07:00,
2013-02-15 11:12:00,43.2,28.9,29.90,North,353,3.0,7.0,57,0.01,,,0.01,meteohub,2013-02-15 16:12:00,
2013-02-15 11:17:00,43.2,30.6,29.91,West,263,2.0,7.0,61,0.01,,,0.01,meteohub,2013-02-15 16:17:00,
2013-02-15 11:22:00,43.2,28.9,29.90,North,357,3.0,7.0,57,0.01,,,0.01,meteohub,2013-02-15 16:22:00,
2013-02-15 11:27:00,43.2,28.6,29.91,NNW,332,4.0,9.0,56,0.02,,,0.02,meteohub,2013-02-15 16:27:00,
2013-02-15 11:32:00,42.6,28.4,29.91,NW,324,1.0,10.0,57,0.02,,,0.02,meteohub,2013-02-15 16:32:00,
2013-02-15 11:37:00,42.4,29.1,29.91,NW,324,6.0,11.0,59,0.02,,,0.02,meteohub,2013-02-15 16:37:00,
2013-02-15 11:42:00,42.3,28.0,29.91,NNE,27,5.0,11.0,57,0.02,,,0.02,meteohub,2013-02-15 16:42:00,
2013-02-15 11:47:00,42.1,27.9,29.91,SE,130,2.0,11.0,57,0.02,,,0.02,meteohub,2013-02-15 16:47:00,
2013-02-15 11:52:00,42.1,27.9,29.91,NNE,18,1.0,11.0,57,0.03,,,0.03,meteohub,2013-02-15 16:52:00,
2013-02-15 11:57:00,42.1,27.9,29.91,NW,323,0.0,10.0,57,0.03,,,0.03,meteohub,2013-02-15 16:57:00,
2013-02-15 12:02:00,42.3,27.3,29.91,NNW,341,6.0,10.0,55,0.03,,,0.03,meteohub,2013-02-15 17:02:00,
2013-02-15 12:07:00,42.3,27.3,29.91,NNW,334,3.0,12.0,55,0.03,,,0.03,meteohub,2013-02-15 17:07:00,
2013-02-15 12:12:00,42.1,27.1,29.91,NNE,14,3.0,12.0,55,0.02,,,0.03,meteohub,2013-02-15 17:12:00,
2013-02-15 12:17:00,42.1,27.5,29.90,SE,136,1.0,12.0,56,0.03,,,0.04,meteohub,2013-02-15 17:17:00,
2013-02-15 12:22:00,41.9,27.3,29.90,North,5,2.0,10.0,56,0.03,,,0.04,meteohub,2013-02-15 17:22:00,
2013-02-15 12:27:00,42.1,27.5,29.90,NNW,343,3.0,10.0,56,0.02,,,0.04,meteohub,2013-02-15 17:27:00,
2013-02-15 12:32:00,42.3,28.0,29.90,East,101,0.0,8.0,57,0.02,,,0.04,meteohub,2013-02-15 17:32:00,
2013-02-15 12:37:00,42.4,28.8,29.90,East,101,0.0,8.0,58,0.02,,,0.04,meteohub,2013-02-15 17:37:00,
2013-02-15 12:42:00,42.3,27.7,29.90,North,8,0.0,7.0,56,0.02,,,0.04,meteohub,2013-02-15 17:42:00,
2013-02-15 12:47:00,42.3,28.9,29.90,NNE,12,0.0,5.0,59,0.02,,,0.05,meteohub,2013-02-15 17:47:00,
2013-02-15 12:52:00,42.3,28.0,29.90,NW,326,3.0,6.0,57,0.02,,,0.05,meteohub,2013-02-15 17:52:00,
2013-02-15 12:57:00,42.3,28.6,29.90,NW,316,3.0,6.0,58,0.02,,,0.05,meteohub,2013-02-15 17:57:00,
2013-02-15 13:02:00,42.3,28.6,29.90,North,3,2.0,8.0,58,0.02,,,0.05,meteohub,2013-02-15 18:02:00,
2013-02-15 13:07:00,42.1,28.4,29.90,NNW,338,0.0,8.0,58,0.02,,,0.05,meteohub,2013-02-15 18:07:00,
2013-02-15 13:12:00,42.1,28.8,29.90,SE,136,1.0,6.0,59,0.01,,,0.05,meteohub,2013-02-15 18:12:00,
2013-02-15 13:17:00,42.1,28.8,29.90,North,351,1.0,5.0,59,0.01,,,0.05,meteohub,2013-02-15 18:17:00,
2013-02-15 13:22:00,42.1,28.8,29.90,North,5,2.0,5.0,59,0.02,,,0.06,meteohub,2013-02-15 18:22:00,
2013-02-15 13:27:00,42.1,28.8,29.90,NNW,341,3.0,8.0,59,0.02,,,0.06,meteohub,2013-02-15 18:27:00,
2013-02-15 13:32:00,42.1,29.1,29.90,WNW,291,4.0,8.0,60,0.02,,,0.06,meteohub,2013-02-15 18:32:00,
2013-02-15 13:37:00,41.7,28.9,29.90,WNW,293,4.0,6.0,60,0.02,,,0.06,meteohub,2013-02-15 18:37:00,
2013-02-15 13:42:00,41.7,28.9,29.90,NW,310,4.0,8.0,60,0.02,,,0.06,meteohub,2013-02-15 18:42:00,
2013-02-15 13:47:00,41.9,28.9,29.90,WNW,298,1.0,10.0,60,0.01,,,0.06,meteohub,2013-02-15 18:47:00,
2013-02-15 13:52:00,41.9,28.9,29.90,NNW,345,2.0,10.0,60,0.01,,,0.06,meteohub,2013-02-15 18:52:00,
2013-02-15 13:57:00,42.1,29.1,29.90,NNW,343,0.0,10.0,60,0.02,,,0.07,meteohub,2013-02-15 18:57:00,
2013-02-15 14:02:00,42.3,30.2,29.90,North,351,2.0,8.0,62,0.02,,,0.07,meteohub,2013-02-15 19:02:00,
2013-02-15 14:07:00,42.4,30.0,29.90,NW,315,0.0,7.0,61,0.02,,,0.07,meteohub,2013-02-15 19:07:00,
2013-02-15 14:12:00,42.4,29.1,29.90,WNW,292,0.0,6.0,59,0.02,,,0.07,meteohub,2013-02-15 19:12:00,
2013-02-15 14:17:00,42.6,29.3,29.90,NNW,328,5.0,8.0,59,0.01,,,0.07,meteohub,2013-02-15 19:17:00,
2013-02-15 14:22:00,42.6,28.9,29.91,NNE,17,3.0,8.0,58,0.01,,,0.07,meteohub,2013-02-15 19:22:00,
2013-02-15 14:27:00,42.4,28.8,29.91,North,353,9.0,9.0,58,0.02,,,0.08,meteohub,2013-02-15 19:27:00,
2013-02-15 14:32:00,42.3,28.0,29.91,West,273,4.0,13.0,57,0.02,,,0.08,meteohub,2013-02-15 19:32:00,
2013-02-15 14:37:00,42.1,27.9,29.91,NNW,341,2.0,14.0,57,0.02,,,0.08,meteohub,2013-02-15 19:37:00,
2013-02-15 14:42:00,42.1,28.4,29.91,ESE,114,5.0,14.0,58,0.02,,,0.08,meteohub,2013-02-15 19:42:00,
2013-02-15 14:47:00,42.1,28.8,29.91,North,357,6.0,14.0,59,0.02,,,0.08,meteohub,2013-02-15 19:47:00,
2013-02-15 14:52:00,42.1,27.5,29.91,NNW,332,6.0,9.0,56,0.02,,,0.08,meteohub,2013-02-15 19:52:00,
2013-02-15 14:57:00,41.9,27.3,29.91,WSW,248,1.0,11.0,56,0.01,,,0.08,meteohub,2013-02-15 19:57:00,
2013-02-15 15:02:00,41.9,27.9,29.91,NE,56,2.0,12.0,57,0.01,,,0.08,meteohub,2013-02-15 20:02:00,
2013-02-15 15:07:00,41.9,26.4,29.91,NNW,334,1.0,12.0,54,0.01,,,0.08,meteohub,2013-02-15 20:07:00,
2013-02-15 15:12:00,42.3,27.3,29.91,East,83,2.0,16.0,55,0.01,,,0.08,meteohub,2013-02-15 20:12:00,
2013-02-15 15:17:00,42.4,26.1,29.91,SSE,147,0.0,16.0,52,0.02,,,0.09,meteohub,2013-02-15 20:17:00,
2013-02-15 15:22:00,42.8,26.8,29.91,SE,128,1.0,9.0,53,0.02,,,0.09,meteohub,2013-02-15 20:22:00,
2013-02-15 15:27:00,42.8,27.3,29.91,NNW,334,0.0,7.0,54,0.01,,,0.09,meteohub,2013-02-15 20:27:00,
2013-02-15 15:32:00,42.4,26.6,29.91,NNW,338,4.0,6.0,53,0.01,,,0.09,meteohub,2013-02-15 20:32:00,
2013-02-15 15:37:00,42.3,25.9,29.91,NW,324,2.0,6.0,52,0.01,,,0.09,meteohub,2013-02-15 20:37:00,
2013-02-15 15:42:00,41.7,26.8,29.91,NNW,344,8.0,8.0,55,0.01,,,0.09,meteohub,2013-02-15 20:42:00,
2013-02-15 15:47:00,41.4,26.8,29.91,North,359,7.0,15.0,56,0.01,,,0.09,meteohub,2013-02-15 20:47:00,
2013-02-15 15:52:00,40.8,27.1,29.91,WNW,294,9.0,16.0,58,0.01,,,0.09,meteohub,2013-02-15 20:52:00,
2013-02-15 15:57:00,40.6,27.0,29.91,NW,314,3.0,16.0,58,0.01,,,0.09,meteohub,2013-02-15 20:57:00,
2013-02-15 16:02:00,40.6,27.0,29.92,NNW,336,4.0,16.0,58,0.01,,,0.09,meteohub,2013-02-15 21:02:00,
2013-02-15 16:07:00,40.5,26.8,29.92,NNW,331,2.0,9.0,58,0.01,,,0.09,meteohub,2013-02-15 21:07:00,
2013-02-15 16:12:00,40.5,27.3,29.92,SSW,193,1.0,9.0,59,0.01,,,0.09,meteohub,2013-02-15 21:12:00,
2013-02-15 16:17:00,40.3,27.9,29.92,NNW,341,2.0,11.0,61,0.00,,,0.09,meteohub,2013-02-15 21:17:00,
2013-02-15 16:22:00,39.9,26.8,29.92,NNW,330,0.0,11.0,59,0.00,,,0.09,meteohub,2013-02-15 21:22:00,
2013-02-15 16:27:00,39.9,26.8,29.93,NNE,14,2.0,6.0,59,0.00,,,0.09,meteohub,2013-02-15 21:27:00,
2013-02-15 16:32:00,39.7,26.6,29.93,WNW,297,0.0,6.0,59,0.00,,,0.09,meteohub,2013-02-15 21:32:00,
2013-02-15 16:37:00,39.6,27.7,29.93,West,281,0.0,4.0,62,0.00,,,0.09,meteohub,2013-02-15 21:37:00,
2013-02-15 16:42:00,39.6,26.4,29.93,SE,140,0.0,5.0,59,0.00,,,0.09,meteohub,2013-02-15 21:42:00,
2013-02-15 16:47:00,39.4,26.2,29.93,NNW,334,5.0,8.0,59,0.00,,,0.09,meteohub,2013-02-15 21:47:00,
2013-02-15 16:52:00,39.2,25.7,29.94,North,11,2.0,8.0,58,0.00,,,0.09,meteohub,2013-02-15 21:52:00,
2013-02-15 16:57:00,39.2,26.1,29.93,ESE,112,1.0,8.0,59,0.00,,,0.09,meteohub,2013-02-15 21:57:00,
2013-02-15 17:02:00,39.0,25.9,29.93,NNW,337,2.0,8.0,59,0.00,,,0.09,meteohub,2013-02-15 22:02:00,
2013-02-15 17:07:00,38.8,26.6,29.94,NW,322,0.0,6.0,61,0.00,,,0.09,meteohub,2013-02-15 22:07:00,
2013-02-15 17:12:00,38.3,26.8,29.94,NW,322,0.0,5.0,63,0.00,,,0.09,meteohub,2013-02-15 22:12:00,
2013-02-15 17:17:00,37.8,25.2,29.94,ESE,120,0.0,2.0,60,0.00,,,0.09,meteohub,2013-02-15 22:17:00,
2013-02-15 17:22:00,37.6,25.0,29.94,ESE,120,0.0,4.0,60,0.00,,,0.09,meteohub,2013-02-15 22:22:00,
2013-02-15 17:27:00,37.2,26.6,29.94,ESE,120,0.0,4.0,65,0.00,,,0.09,meteohub,2013-02-15 22:27:00,
2013-02-15 17:32:00,36.9,25.9,29.94,North,353,1.0,4.0,64,0.00,,,0.09,meteohub,2013-02-15 22:32:00,
2013-02-15 17:37:00,36.7,26.1,29.94,NNW,343,1.0,4.0,65,0.00,,,0.09,meteohub,2013-02-15 22:37:00,
2013-02-15 17:42:00,36.3,25.3,29.94,WNW,301,4.0,4.0,64,0.00,,,0.09,meteohub,2013-02-15 22:42:00,
2013-02-15 17:48:00,36.5,25.2,29.94,North,359,0.0,8.0,63,0.00,,,0.09,meteohub,2013-02-15 22:48:00,
2013-02-15 17:53:00,36.3,25.7,29.94,NNW,336,0.0,8.0,65,0.00,,,0.09,meteohub,2013-02-15 22:53:00,
2013-02-15 17:58:00,36.3,24.1,29.94,North,353,3.0,8.0,61,0.00,,,0.09,meteohub,2013-02-15 22:58:00,
2013-02-15 18:03:00,36.7,24.4,29.94,NNW,341,2.0,8.0,61,0.00,,,0.09,meteohub,2013-02-15 23:03:00,
2013-02-15 18:08:00,36.3,24.6,29.94,NW,313,1.0,8.0,62,0.00,,,0.09,meteohub,2013-02-15 23:08:00,
2013-02-15 18:13:00,36.1,25.2,29.95,NNW,335,1.0,8.0,64,0.00,,,0.09,meteohub,2013-02-15 23:13:00,
2013-02-15 18:18:00,35.8,24.1,29.95,NNW,347,1.0,7.0,62,0.00,,,0.09,meteohub,2013-02-15 23:18:00,
2013-02-15 18:23:00,35.8,24.4,29.95,NNW,342,0.0,7.0,63,0.00,,,0.09,meteohub,2013-02-15 23:23:00,
2013-02-15 18:28:00,35.4,24.8,29.95,NNW,342,0.0,7.0,65,0.00,,,0.09,meteohub,2013-02-15 23:28:00,
2013-02-15 18:33:00,34.9,25.0,29.95,NNW,333,2.0,4.0,67,0.00,,,0.09,meteohub,2013-02-15 23:33:00,
2013-02-15 18:38:00,34.3,24.8,29.95,NW,322,0.0,4.0,68,0.00,,,0.09,meteohub,2013-02-15 23:38:00,
2013-02-15 18:43:00,34.2,24.1,29.95,NNW,345,3.0,6.0,66,0.00,,,0.09,meteohub,2013-02-15 23:43:00,
2013-02-15 18:48:00,34.3,25.2,29.95,NW,313,1.0,6.0,69,0.00,,,0.09,meteohub,2013-02-15 23:48:00,
2013-02-15 18:53:00,34.2,24.6,29.94,NNW,339,2.0,6.0,68,0.00,,,0.09,meteohub,2013-02-15 23:53:00,
2013-02-15 18:58:00,34.2,23.5,29.94,NW,311,3.0,6.0,65,0.00,,,0.09,meteohub,2013-02-15 23:58:00,
2013-02-15 19:03:00,34.3,23.4,29.94,NNW,338,2.0,6.0,64,0.00,,,0.09,meteohub,2013-02-16 00:03:00,
2013-02-15 19:08:00,34.7,23.4,29.94,NNW,346,3.0,5.0,63,0.00,,,0.00,meteohub,2013-02-16 00:08:00,
2013-02-15 19:13:00,34.7,24.1,29.94,NNW,330,2.0,10.0,65,0.00,,,0.00,meteohub,2013-02-16 00:13:00,
2013-02-15 19:18:00,35.2,23.2,29.94,NNE,22,2.0,10.0,61,0.00,,,0.00,meteohub,2013-02-16 00:18:00,
2013-02-15 19:23:00,35.4,23.0,29.94,WNW,287,3.0,10.0,60,0.00,,,0.00,meteohub,2013-02-16 00:23:00,
2013-02-15 19:28:00,35.4,22.5,29.94,NW,319,1.0,7.0,59,0.00,,,0.00,meteohub,2013-02-16 00:28:00,
2013-02-15 19:33:00,35.4,23.4,29.94,NNW,328,0.0,7.0,61,0.00,,,0.00,meteohub,2013-02-16 00:33:00,
2013-02-15 19:38:00,35.1,24.1,29.94,West,274,1.0,7.0,64,0.00,,,0.00,meteohub,2013-02-16 00:38:00,
2013-02-15 19:44:00,34.5,23.9,29.94,South,178,0.0,7.0,65,0.00,,,0.00,meteohub,2013-02-16 00:44:00,
2013-02-15 19:49:00,34.2,24.4,29.94,SSE,153,0.0,2.0,67,0.00,,,0.00,meteohub,2013-02-16 00:49:00,
2013-02-15 19:54:00,33.6,23.9,29.94,SSE,163,0.0,2.0,67,0.00,,,0.00,meteohub,2013-02-16 00:54:00,
2013-02-15 19:59:00,33.3,24.6,29.95,SSE,163,1.0,2.0,70,0.00,,,0.00,meteohub,2013-02-16 00:59:00,
2013-02-15 20:04:00,32.5,24.4,29.94,SE,134,2.0,2.0,72,0.00,,,0.00,meteohub,2013-02-16 01:04:00,
2013-02-15 20:09:00,32.2,24.3,29.94,SE,134,0.0,3.0,72,0.00,,,0.00,meteohub,2013-02-16 01:09:00,
2013-02-15 20:15:00,31.8,23.9,29.94,SE,134,0.0,3.0,72,0.00,,,0.00,meteohub,2013-02-16 01:15:00,
2013-02-15 20:20:00,31.6,23.9,29.95,SE,134,0.0,2.0,73,0.00,,,0.00,meteohub,2013-02-16 01:20:00,
2013-02-15 20:25:00,31.3,23.7,29.94,North,3,0.0,1.0,73,0.00,,,0.00,meteohub,2013-02-16 01:25:00,
2013-02-15 20:30:00,30.4,23.2,29.94,North,3,1.0,2.0,74,0.00,,,0.00,meteohub,2013-02-16 01:30:00,
2013-02-15 20:35:00,29.5,22.5,29.94,North,8,0.0,2.0,75,0.00,,,0.00,meteohub,2013-02-16 01:35:00,
2013-02-15 20:40:00,28.9,22.6,29.94,ENE,76,0.0,2.0,77,0.00,,,0.00,meteohub,2013-02-16 01:40:00,
2013-02-15 20:45:00,28.8,22.5,29.94,ENE,76,0.0,2.0,77,0.00,,,0.00,meteohub,2013-02-16 01:45:00,
2013-02-15 20:50:00,28.2,21.9,29.94,West,270,0.0,3.0,77,0.00,,,0.00,meteohub,2013-02-16 01:50:00,
2013-02-15 20:55:00,27.7,20.8,29.94,SE,132,0.0,3.0,75,0.00,,,0.00,meteohub,2013-02-16 01:55:00,
2013-02-15 21:00:00,27.0,20.5,29.94,SE,136,0.0,3.0,76,0.00,,,0.00,meteohub,2013-02-16 02:00:00,
2013-02-15 21:05:00,26.6,21.0,29.94,ESE,121,0.0,2.0,79,0.00,,,0.00,meteohub,2013-02-16 02:05:00,
2013-02-15 21:10:00,26.4,20.8,29.94,SW,232,0.0,2.0,79,0.00,,,0.00,meteohub,2013-02-16 02:10:00,
2013-02-15 21:15:00,26.8,21.7,29.94,ESE,116,0.0,2.0,81,0.00,,,0.00,meteohub,2013-02-16 02:15:00,
2013-02-15 21:20:00,27.0,21.9,29.94,ESE,116,0.0,2.0,81,0.00,,,0.00,meteohub,2013-02-16 02:20:00,
2013-02-15 21:25:00,27.0,21.4,29.94,ESE,116,0.0,2.0,79,0.00,,,0.00,meteohub,2013-02-16 02:25:00,
2013-02-15 21:30:00,27.0,21.4,29.94,ESE,116,0.0,0.0,79,0.00,,,0.00,meteohub,2013-02-16 02:30:00,
2013-02-15 21:35:00,27.0,21.0,29.94,ESE,116,0.0,0.0,78,0.00,,,0.00,meteohub,2013-02-16 02:35:00,
2013-02-15 21:41:00,27.0,21.4,29.94,ESE,116,0.0,0.0,79,0.00,,,0.00,meteohub,2013-02-16 02:41:00,
2013-02-15 21:46:00,27.0,21.6,29.94,ESE,114,0.0,1.0,80,0.00,,,0.00,meteohub,2013-02-16 02:46:00,
2013-02-15 21:51:00,26.8,21.2,29.94,ESE,114,0.0,1.0,79,0.00,,,0.00,meteohub,2013-02-16 02:51:00,
2013-02-15 21:56:00,26.4,20.5,29.94,SE,141,0.0,2.0,78,0.00,,,0.00,meteohub,2013-02-16 02:56:00,
2013-02-15 22:01:00,26.1,21.0,29.94,SE,141,0.0,2.0,81,0.00,,,0.00,meteohub,2013-02-16 03:01:00,
2013-02-15 22:06:00,25.9,20.5,29.94,SE,141,0.0,2.0,80,0.00,,,0.00,meteohub,2013-02-16 03:06:00,
2013-02-15 22:11:00,25.5,20.3,29.94,SE,141,0.0,1.0,80,0.00,,,0.00,meteohub,2013-02-16 03:11:00,
2013-02-15 22:16:00,25.3,20.3,29.94,SE,141,0.0,1.0,81,0.00,,,0.00,meteohub,2013-02-16 03:16:00,
2013-02-15 22:21:00,25.2,20.5,29.95,SE,141,0.0,0.0,82,0.00,,,0.00,meteohub,2013-02-16 03:21:00,
2013-02-15 22:26:00,25.2,20.5,29.95,SE,141,0.0,0.0,82,0.00,,,0.00,meteohub,2013-02-16 03:26:00,
2013-02-15 22:31:00,25.2,20.5,29.95,SE,141,0.0,0.0,82,0.00,,,0.00,meteohub,2013-02-16 03:31:00,
2013-02-15 22:36:00,24.6,18.7,29.94,SE,141,0.0,0.0,78,0.00,,,0.00,meteohub,2013-02-16 03:36:00,
2013-02-15 22:41:00,23.7,19.0,29.95,SE,141,0.0,1.0,82,0.00,,,0.00,meteohub,2013-02-16 03:41:00,
2013-02-15 22:46:00,23.5,19.2,29.95,SE,141,0.0,1.0,83,0.00,,,0.00,meteohub,2013-02-16 03:46:00,
2013-02-15 22:51:00,23.4,19.6,29.95,SE,141,0.0,1.0,85,0.00,,,0.00,meteohub,2013-02-16 03:51:00,
2013-02-15 22:56:00,23.4,19.8,29.95,SE,141,0.0,0.0,86,0.00,,,0.00,meteohub,2013-02-16 03:56:00,
2013-02-15 23:01:00,23.2,18.9,29.95,SE,141,0.0,0.0,83,0.00,,,0.00,meteohub,2013-02-16 04:01:00,
2013-02-15 23:06:00,22.6,18.9,29.95,SE,141,0.0,1.0,85,0.00,,,0.00,meteohub,2013-02-16 04:06:00,
2013-02-15 23:11:00,22.6,19.4,29.95,SE,141,0.0,1.0,87,0.00,,,0.00,meteohub,2013-02-16 04:11:00,
2013-02-15 23:16:00,22.8,19.8,29.95,SE,141,0.0,1.0,88,0.00,,,0.00,meteohub,2013-02-16 04:16:00,
2013-02-15 23:21:00,22.6,18.9,29.94,SE,139,0.0,0.0,85,0.00,,,0.00,meteohub,2013-02-16 04:21:00,
2013-02-15 23:26:00,22.6,19.0,29.94,SE,139,0.0,1.0,86,0.00,,,0.00,meteohub,2013-02-16 04:26:00,
2013-02-15 23:31:00,22.6,19.6,29.95,SE,139,0.0,1.0,88,0.00,,,0.00,meteohub,2013-02-16 04:31:00,
2013-02-15 23:36:00,23.2,20.1,29.94,SE,139,0.0,1.0,88,0.00,,,0.00,meteohub,2013-02-16 04:36:00,
2013-02-15 23:41:00,23.4,20.3,29.94,SE,139,0.0,1.0,88,0.00,,,0.00,meteohub,2013-02-16 04:41:00,
2013-02-15 23:46:00,23.7,20.7,29.94,SE,138,0.0,1.0,88,0.00,,,0.00,meteohub,2013-02-16 04:46:00,
2013-02-15 23:52:00,24.3,21.2,29.95,SE,138,0.0,2.0,88,0.00,,,0.00,meteohub,2013-02-16 04:52:00,
2013-02-15 23:57:00,25.2,21.6,29.96,SE,126,1.0,2.0,86,0.00,,,0.00,meteohub,2013-02-16 04:57:00,